Terminal Aerodrome Forecast
Issued by NWS Charleston, WV

Current Version | Previous Version | Graphics & Text | Print | Product List | Glossary On
Versions: 1 2 3 4 5 6 7 8 9 10 11 12 13 14 15 16 17 18 19 20 21 22 23 24 25 26 27
341
FTUS41 KRLX 241120
TAFBKW
TAF
KBKW 241120Z 2412/2512 10010G17KT 6SM -RA SCT012 OVC060
      TEMPO 2412/2415 RA BR SCT008 BKN012
     FM241500 10011G18KT P6SM -RA OVC040
      TEMPO 2415/2419 4SM RA OVC015
     FM242300 10008KT P6SM OVC040
     FM250700 10008KT P6SM BKN008=

USA.gov is the U.S. government's official web portal to all federal, state and local government web resources and services.